Aviation Digital Data Service (ADDS)

Output produced by METARs form (1741 UTC 28 March 2017)
found at http://aviationweather.gov/adds/metars/
 
KGFL 281727Z 2818/2918 19004KT P6SM VCSH BKN015 OVC060 
     FM282200 VRB03KT 6SM -SHRA BR OVC010 
     FM290300 01005KT P6SM OVC010 
     FM291600 35009KT P6SM BKN035